Time;durP1;ratioP1;P1;durP2;ratioP2;P2;SDS_P1;SDS_P2;PMS_P1;PMS_P2;Temp;Humidity;BMP_temperature;BMP_pressure;BME280_temperature;BME280_humidity;BME280_pressure;Samples;Min_cycle;Max_cycle;Signal;HPM_P1;HPM_P2
2021/12/17 00:00:57;;;;;;;98.95;34.40;;;;;;;10.36;100.00;103605.38;5026307;28;20053;-74
2021/12/17 00:03:44;;;;;;;95.78;35.50;;;;;;;10.36;100.00;103599.81;5031526;28;20406;-75
2021/12/17 00:06:19;;;;;;;93.60;35.28;;;;;;;10.36;100.00;103599.81;5032613;28;20514;-73
2021/12/17 00:08:49;;;;;;;88.38;33.38;;;;;;;10.35;100.00;103592.66;5031099;28;20077;-74
2021/12/17 00:11:18;;;;;;;84.68;33.40;;;;;;;10.30;100.00;103594.78;5036962;28;20049;-73
2021/12/17 00:13:46;;;;;;;82.82;29.98;;;;;;;10.19;100.00;103577.69;5031012;28;20058;-76
2021/12/17 00:16:20;;;;;;;90.75;32.50;;;;;;;10.16;100.00;103578.34;5030705;28;20454;-73
2021/12/17 00:48:52;;;;;;;91.75;33.10;;;;;;;10.19;100.00;103585.16;5029939;28;20063;-74
2021/12/17 00:54:19;;;;;;;94.53;34.28;;;;;;;10.16;100.00;103572.81;5018265;28;20136;-75
2021/12/17 00:56:51;;;;;;;93.43;34.53;;;;;;;10.15;100.00;103578.66;5029613;28;20054;-74
2021/12/17 00:59:18;;;;;;;109.65;38.20;;;;;;;10.19;100.00;103577.69;5041268;28;20049;-73
2021/12/17 01:01:46;;;;;;;95.68;33.67;;;;;;;10.19;100.00;103572.16;5031928;28;20059;-74
2021/12/17 01:04:14;;;;;;;97.32;34.63;;;;;;;10.19;100.00;103563.84;5029876;28;20057;-73
2021/12/17 01:06:41;;;;;;;90.78;34.22;;;;;;;10.19;100.00;103563.84;5032064;28;20399;-74
2021/12/17 01:09:12;;;;;;;101.32;37.70;;;;;;;10.19;100.00;103555.56;5045769;28;20049;-74
2021/12/17 01:11:39;;;;;;;97.85;36.60;;;;;;;10.22;100.00;103571.50;5045746;28;20501;-74
2021/12/17 01:14:06;;;;;;;106.90;37.78;;;;;;;10.24;100.00;103568.41;5038783;28;20305;-74
2021/12/17 01:16:33;;;;;;;108.28;38.33;;;;;;;10.25;100.00;103565.31;5032478;28;20071;-73
2021/12/17 01:24:29;;;;;;;108.28;42.10;;;;;;;10.28;100.00;103564.69;5042483;28;20057;-74
2021/12/17 01:35:23;;;;;;;96.63;36.78;;;;;;;10.33;100.00;103567.25;5019987;28;20057;-74
2021/12/17 01:43:04;;;;;;;110.78;40.53;;;;;;;10.32;100.00;103576.72;5026545;28;20148;-73
2021/12/17 01:45:36;;;;;;;108.82;37.42;;;;;;;10.31;100.00;103577.03;5027363;28;20140;-74
2021/12/17 01:48:07;;;;;;;109.97;38.70;;;;;;;10.32;100.00;103576.72;5018766;28;20796;-74
2021/12/17 02:01:38;;;;;;;90.95;32.72;;;;;;;10.35;100.00;103576.06;5041477;28;20570;-73
2021/12/17 02:04:05;;;;;;;92.97;33.97;;;;;;;10.37;100.00;103590.38;5027047;28;20057;-74
2021/12/17 02:06:37;;;;;;;93.15;32.03;;;;;;;10.36;100.00;103588.75;5043684;28;20414;-73
2021/12/17 02:31:44;;;;;;;88.63;32.05;;;;;;;10.33;100.00;103574.78;5047227;28;20136;-74
2021/12/17 02:36:50;;;;;;;83.57;32.10;;;;;;;10.34;100.00;103582.75;5040210;28;20053;-74
2021/12/17 02:47:29;;;;;;;91.28;32.25;;;;;;;10.26;100.00;103580.78;5028212;28;20079;-74
2021/12/17 02:49:55;;;;;;;81.78;32.13;;;;;;;10.24;100.00;103574.78;5040927;28;20539;-75
2021/12/17 02:52:28;;;;;;;96.00;34.60;;;;;;;10.26;100.00;103580.78;5040408;28;20154;-73
2021/12/17 02:54:57;;;;;;;99.40;33.60;;;;;;;10.28;100.00;103577.69;5047912;28;20425;-74
2021/12/17 02:57:25;;;;;;;102.72;35.45;;;;;;;10.24;100.00;103574.78;5033648;28;20072;-74
2021/12/17 02:59:52;;;;;;;116.82;36.78;;;;;;;10.27;100.00;103573.31;5027991;28;20132;-73
2021/12/17 03:02:23;;;;;;;102.95;34.75;;;;;;;10.25;100.00;103578.34;5041499;28;20041;-74
2021/12/17 03:04:51;;;;;;;111.40;38.70;;;;;;;10.24;100.00;103585.03;5038726;28;20049;-73
2021/12/17 03:07:17;;;;;;;103.97;35.20;;;;;;;10.20;100.00;103584.84;5050667;28;20059;-74
2021/12/17 03:12:25;;;;;;;93.45;33.63;;;;;;;10.16;100.00;103578.34;5051193;28;20056;-75
2021/12/17 03:15:10;;;;;;;94.10;32.75;;;;;;;10.17;100.00;103577.19;5043305;28;20045;-75
2021/12/17 03:26:02;;;;;;;105.90;35.83;;;;;;;10.19;100.00;103571.34;5032574;28;20144;-75
2021/12/17 03:28:31;;;;;;;107.45;36.10;;;;;;;10.19;100.00;103566.63;5042209;28;20055;-75
2021/12/17 03:30:58;;;;;;;108.88;39.92;;;;;;;10.21;100.00;103569.06;5032612;28;20482;-75
2021/12/17 03:33:24;;;;;;;105.38;36.38;;;;;;;10.20;100.00;103564.69;5030400;28;20058;-75
2021/12/17 03:35:52;;;;;;;106.07;37.33;;;;;;;10.21;100.00;103566.31;5037133;28;20052;-74
2021/12/17 03:38:19;;;;;;;111.80;34.15;;;;;;;10.23;100.00;103572.34;5040643;28;20081;-74
2021/12/17 03:40:47;;;;;;;104.00;33.33;;;;;;;10.21;100.00;103569.88;5031649;28;20762;-75
2021/12/17 03:43:21;;;;;;;97.93;33.58;;;;;;;10.23;100.00;103573.13;5033314;28;20051;-76
2021/12/17 03:45:48;;;;;;;106.25;36.83;;;;;;;10.24;100.00;103571.19;5047581;28;20136;-76
2021/12/17 03:48:15;;;;;;;107.80;35.78;;;;;;;10.24;100.00;103577.53;5033208;28;20096;-74
2021/12/17 03:50:42;;;;;;;100.13;34.45;;;;;;;10.25;100.00;103576.41;5049106;28;20053;-74
2021/12/17 03:53:09;;;;;;;108.35;38.58;;;;;;;10.26;100.00;103574.44;5040093;28;20041;-75
2021/12/17 03:55:35;;;;;;;108.00;35.72;;;;;;;10.25;100.00;103570.84;5031105;28;20059;-74
2021/12/17 03:58:02;;;;;;;106.57;35.20;;;;;;;10.21;100.00;103564.34;5031195;28;20053;-74
2021/12/17 04:00:30;;;;;;;98.20;34.30;;;;;;;10.21;100.00;103561.59;5050632;28;20056;-75
2021/12/17 04:02:57;;;;;;;109.43;35.45;;;;;;;10.24;100.00;103560.13;5035687;28;20059;-74
2021/12/17 04:05:25;;;;;;;96.38;34.45;;;;;;;10.21;100.00;103564.34;5030193;28;20053;-74
2021/12/17 04:07:51;;;;;;;96.63;33.38;;;;;;;10.20;100.00;103559.94;5030617;28;20052;-74
2021/12/17 04:10:19;;;;;;;95.72;34.00;;;;;;;10.22;100.00;103565.16;5047819;28;20049;-74
2021/12/17 04:13:03;;;;;;;91.07;32.72;;;;;;;10.25;100.00;103575.56;5029377;28;20046;-75
2021/12/17 04:15:36;;;;;;;105.70;29.70;;;;;;;10.24;100.00;103583.09;5028958;28;20083;-75
2021/12/17 04:18:07;;;;;;;99.70;31.17;;;;;;;10.24;100.00;103580.31;5029773;28;20076;-74
2021/12/17 04:20:34;;;;;;;92.75;30.77;;;;;;;10.24;100.00;103588.63;5030679;28;20049;-74
2021/12/17 04:23:02;;;;;;;85.93;30.20;;;;;;;10.21;100.00;103578.19;5035803;28;20049;-76
2021/12/17 04:25:29;;;;;;;93.50;31.10;;;;;;;10.21;100.00;103575.44;5041490;28;20541;-74
2021/12/17 04:27:58;;;;;;;89.07;30.92;;;;;;;10.23;100.00;103577.88;5043833;28;20564;-75
2021/12/17 04:30:25;;;;;;;102.78;32.55;;;;;;;10.20;100.00;103575.75;5041192;28;20600;-75
2021/12/17 04:32:53;;;;;;;90.00;30.33;;;;;;;10.20;100.00;103570.22;5049944;28;20086;-75
2021/12/17 04:35:20;;;;;;;83.93;30.35;;;;;;;10.19;100.00;103574.09;5050162;28;20057;-75
2021/12/17 04:37:46;;;;;;;86.63;31.13;;;;;;;10.19;100.00;103574.94;5030349;28;20046;-74
2021/12/17 04:40:13;;;;;;;90.70;31.05;;;;;;;10.19;100.00;103574.09;5031897;28;20103;-74
2021/12/17 04:45:09;;;;;;;83.15;29.63;;;;;;;10.21;100.00;103582.91;5030088;28;20779;-73
2021/12/17 04:58:36;;;;;;;75.57;28.40;;;;;;;10.16;100.00;103583.88;5030258;28;20056;-74
2021/12/17 05:01:09;;;;;;;75.70;25.98;;;;;;;10.18;100.00;103584.38;5027832;28;20379;-74
2021/12/17 05:03:35;;;;;;;80.95;28.08;;;;;;;10.19;100.00;103579.63;5028892;28;20220;-73
2021/12/17 05:06:02;;;;;;;88.72;28.83;;;;;;;10.16;100.00;103581.09;5030143;28;20092;-73
2021/12/17 05:08:29;;;;;;;75.68;26.25;;;;;;;10.16;100.00;103583.88;5035985;28;20073;-74
2021/12/17 05:19:04;;;;;;;73.32;25.48;;;;;;;10.14;100.00;103580.63;5034822;28;20042;-74
2021/12/17 05:21:30;;;;;;;78.30;26.88;;;;;;;10.19;100.00;103588.75;5027628;28;20088;-74
2021/12/17 05:23:57;;;;;;;74.25;28.15;;;;;;;10.14;100.00;103585.34;5027792;28;20534;-74
2021/12/17 05:26:24;;;;;;;80.45;29.58;;;;;;;10.16;100.00;103596.91;5029480;28;20053;-75
2021/12/17 05:28:52;;;;;;;74.22;26.00;;;;;;;10.19;100.00;103601.78;5027430;28;20433;-74
2021/12/17 05:31:21;;;;;;;74.43;26.15;;;;;;;10.17;100.00;103604.88;5028429;28;20128;-74
2021/12/17 05:33:49;;;;;;;73.95;28.58;;;;;;;10.15;100.00;103601.63;5029206;28;20068;-74
2021/12/17 05:36:16;;;;;;;72.43;28.48;;;;;;;10.13;100.00;103590.06;5036494;28;20151;-77
2021/12/17 05:38:43;;;;;;;77.90;28.75;;;;;;;10.15;100.00;103596.09;5034448;28;20049;-74
2021/12/17 05:41:09;;;;;;;78.55;26.73;;;;;;;10.14;100.00;103591.72;5030284;28;20052;-74
2021/12/17 05:43:37;;;;;;;73.47;26.90;;;;;;;10.16;100.00;103599.69;5027605;28;20112;-74
2021/12/17 05:46:11;;;;;;;71.88;29.10;;;;;;;10.16;100.00;103594.16;5028508;28;20374;-74
2021/12/17 05:48:39;;;;;;;72.53;30.33;;;;;;;10.15;100.00;103589.72;5029421;28;20055;-74
2021/12/17 05:51:09;;;;;;;75.88;27.08;;;;;;;10.14;100.00;103600.00;5026359;28;20053;-74
2021/12/17 05:53:36;;;;;;;75.22;26.85;;;;;;;10.13;100.00;103590.06;5031482;28;20128;-73
2021/12/17 05:56:03;;;;;;;71.07;28.52;;;;;;;10.14;100.00;103597.25;5042100;28;20107;-75
2021/12/17 05:58:31;;;;;;;71.13;25.80;;;;;;;10.12;100.00;103585.66;5030706;28;20136;-74
2021/12/17 06:00:57;;;;;;;62.67;23.58;;;;;;;10.11;100.00;103584.06;5040289;28;20052;-75
2021/12/17 06:03:25;;;;;;;69.55;25.73;;;;;;;10.11;100.00;103583.22;5029494;28;20522;-75
2021/12/17 06:05:51;;;;;;;72.07;27.42;;;;;;;10.09;100.00;103578.03;5028935;28;20160;-74
2021/12/17 06:08:18;;;;;;;63.88;24.27;;;;;;;10.10;100.00;103587.16;5029489;28;20136;-77
2021/12/17 06:10:44;;;;;;;67.18;24.92;;;;;;;10.06;100.00;103577.88;5027470;28;20095;-74
2021/12/17 06:13:11;;;;;;;71.38;23.85;;;;;;;10.09;100.00;103582.72;5027411;28;20599;-75
2021/12/17 06:15:37;;;;;;;63.17;22.35;;;;;;;10.08;100.00;103581.94;5027641;28;20049;-74
2021/12/17 06:18:04;;;;;;;63.03;23.23;;;;;;;10.07;100.00;103574.78;5026150;28;20051;-74
2021/12/17 06:20:31;;;;;;;70.00;24.20;;;;;;;10.03;100.00;103559.13;5033186;28;20053;-73
2021/12/17 06:22:57;;;;;;;68.35;23.40;;;;;;;10.04;100.00;103569.03;5029887;28;20052;-74
2021/12/17 06:25:24;;;;;;;66.97;24.77;;;;;;;10.03;100.00;103570.19;5035735;28;20059;-75
2021/12/17 06:27:55;;;;;;;64.70;24.20;;;;;;;10.04;100.00;103564.31;5033119;28;20044;-75
2021/12/17 06:30:21;;;;;;;70.13;25.40;;;;;;;10.02;100.00;103566.59;5027487;28;20053;-74
2021/12/17 06:32:48;;;;;;;64.18;24.02;;;;;;;10.04;100.00;103569.88;5027767;28;20057;-75
2021/12/17 06:35:16;;;;;;;61.38;22.85;;;;;;;10.03;100.00;103559.91;5027673;28;20514;-75
2021/12/17 06:37:43;;;;;;;60.67;22.30;;;;;;;10.03;100.00;103567.41;5027658;28;20083;-74
2021/12/17 06:40:11;;;;;;;58.85;22.45;;;;;;;10.02;100.00;103565.78;5026237;28;20053;-74
2021/12/17 06:42:38;;;;;;;55.65;20.30;;;;;;;10.01;100.00;103566.91;5038456;28;20091;-74
2021/12/17 06:45:17;;;;;;;55.40;19.88;;;;;;;10.03;100.00;103565.44;5026054;28;20057;-76
2021/12/17 06:47:53;;;;;;;58.45;20.38;;;;;;;10.04;100.00;103564.31;5025419;28;20046;-74
2021/12/17 06:56:46;;;;;;;39.45;14.68;;;;;;;10.06;100.00;103573.13;5028095;28;19925;-74
2021/12/17 06:59:04;;;;;;;45.90;16.65;;;;;;;10.04;100.00;103569.88;5026744;28;20041;-74
2021/12/17 07:21:00;;;;;;;44.25;15.98;;;;;;;10.06;100.00;103572.34;5016558;28;20049;-74
2021/12/17 07:23:52;;;;;;;49.60;16.70;;;;;;;10.06;100.00;103567.59;5032625;28;20053;-76
2021/12/17 07:34:16;;;;;;;37.85;14.85;;;;;;;9.99;100.00;103564.47;5034184;28;20063;-74
2021/12/17 07:36:55;;;;;;;47.20;16.73;;;;;;;10.00;100.00;103568.84;5025269;28;20607;-74
2021/12/17 07:39:22;;;;;;;43.75;14.68;;;;;;;10.02;100.00;103569.34;5033429;28;20044;-75
2021/12/17 07:41:49;;;;;;;43.03;15.52;;;;;;;9.98;100.00;103571.16;5045797;28;20049;-75
2021/12/17 07:44:15;;;;;;;45.53;15.43;;;;;;;10.00;100.00;103579.13;5047428;28;20067;-76
2021/12/17 07:46:42;;;;;;;45.97;15.90;;;;;;;9.99;100.00;103583.84;5046973;28;20136;-75
2021/12/17 07:49:08;;;;;;;44.90;16.42;;;;;;;10.00;100.00;103591.00;5046037;28;20136;-75
2021/12/17 07:51:36;;;;;;;49.05;17.02;;;;;;;10.00;100.00;103599.28;5040311;28;20061;-74
2021/12/17 07:54:03;;;;;;;48.45;17.33;;;;;;;10.02;100.00;103605.31;5029864;28;20132;-73
2021/12/17 07:56:37;;;;;;;51.10;18.30;;;;;;;10.00;100.00;103612.31;5030337;28;20053;-75
2021/12/17 07:59:09;;;;;;;45.45;16.27;;;;;;;10.01;100.00;103619.47;5030776;28;20053;-78
2021/12/17 08:01:37;;;;;;;54.58;16.67;;;;;;;10.01;100.00;103611.19;5024992;28;20560;-75
2021/12/17 08:04:05;;;;;;;52.03;17.33;;;;;;;10.00;100.00;103624.19;5027829;28;20828;-76
2021/12/17 08:06:33;;;;;;;45.13;14.90;;;;;;;9.99;100.00;103628.09;5037966;28;20084;-75
2021/12/17 08:09:02;;;;;;;44.08;15.30;;;;;;;10.00;100.00;103634.47;5011385;28;20491;-74
2021/12/17 08:11:28;;;;;;;51.83;16.80;;;;;;;9.99;100.00;103636.41;5028347;28;20045;-75
2021/12/17 08:13:56;;;;;;;48.25;15.85;;;;;;;10.01;100.00;103636.09;5039587;28;20734;-76
2021/12/17 08:32:14;;;;;;;46.03;16.63;;;;;;;10.04;100.00;103644.56;5017528;28;20049;-76
2021/12/17 08:34:40;;;;;;;52.50;17.80;;;;;;;10.04;100.00;103640.97;5032133;28;20522;-75
2021/12/17 08:37:07;;;;;;;48.67;16.75;;;;;;;10.03;100.00;103637.38;5025660;28;20632;-75
2021/12/17 08:39:34;;;;;;;41.28;15.75;;;;;;;10.06;100.00;103639.53;5029776;28;20053;-75
2021/12/17 08:42:00;;;;;;;44.65;14.05;;;;;;;10.03;100.00;103634.59;5031197;28;20136;-74
2021/12/17 08:44:28;;;;;;;37.13;14.18;;;;;;;10.06;100.00;103645.06;5030451;28;20053;-76
2021/12/17 08:46:55;;;;;;;36.72;13.52;;;;;;;10.05;100.00;103643.41;5029789;28;20089;-76
2021/12/17 08:49:21;;;;;;;43.08;14.43;;;;;;;10.04;100.00;103652.88;5038724;28;20136;-76
2021/12/17 08:51:51;;;;;;;36.13;13.23;;;;;;;10.05;100.00;103648.94;5049823;28;20055;-75
2021/12/17 08:54:18;;;;;;;36.17;13.02;;;;;;;10.01;100.00;103653.50;5032110;28;20091;-75
2021/12/17 08:56:47;;;;;;;40.53;14.27;;;;;;;10.03;100.00;103661.47;5031281;28;20104;-73
2021/12/17 08:59:16;;;;;;;40.95;13.68;;;;;;;10.03;100.00;103661.47;5030234;28;20826;-75
2021/12/17 09:01:45;;;;;;;39.53;15.00;;;;;;;10.05;100.00;103656.41;5031381;28;20116;-75
2021/12/17 09:04:13;;;;;;;35.80;12.90;;;;;;;10.04;100.00;103663.94;5023085;28;20053;-75
2021/12/17 09:06:40;;;;;;;39.05;12.85;;;;;;;10.02;100.00;103654.28;5032601;28;20049;-77
2021/12/17 09:09:07;;;;;;;31.70;11.25;;;;;;;10.04;100.00;103672.22;5031228;28;20080;-73
2021/12/17 09:11:37;;;;;;;33.83;10.95;;;;;;;10.06;100.00;103669.97;5026143;28;20053;-74
2021/12/17 09:14:05;;;;;;;30.08;12.55;;;;;;;10.04;100.00;103663.94;5029439;28;20136;-73
2021/12/17 09:16:32;;;;;;;31.60;11.85;;;;;;;10.05;100.00;103668.31;5029128;28;20053;-72
2021/12/17 09:18:58;;;;;;;35.45;12.88;;;;;;;10.09;100.00;103665.72;5020752;28;20851;-72
2021/12/17 09:21:25;;;;;;;29.10;10.75;;;;;;;10.09;100.00;103668.50;5011632;28;20155;-74
2021/12/17 09:23:52;;;;;;;30.27;11.15;;;;;;;10.07;100.00;103679.09;5011115;28;20049;-73
2021/12/17 09:26:20;;;;;;;27.33;10.52;;;;;;;10.08;100.00;103678.78;5035391;28;20059;-72
2021/12/17 09:28:47;;;;;;;29.35;10.88;;;;;;;10.10;100.00;103679.25;5036367;28;20045;-73
2021/12/17 09:31:14;;;;;;;26.70;9.60;;;;;;;10.11;100.00;103669.84;5020963;28;20108;-73
2021/12/17 09:33:43;;;;;;;30.05;11.07;;;;;;;10.12;100.00;103678.94;5030429;28;20465;-72
2021/12/17 09:36:10;;;;;;;30.17;10.95;;;;;;;10.15;100.00;103670.81;5028046;28;20501;-74
2021/12/17 09:38:37;;;;;;;28.75;10.68;;;;;;;10.16;100.00;103677.97;5028777;28;20064;-74
2021/12/17 09:41:05;;;;;;;28.00;9.57;;;;;;;10.20;100.00;103673.41;5025482;28;20056;-74
2021/12/17 09:43:36;;;;;;;23.83;8.85;;;;;;;10.22;100.00;103679.44;5027842;28;20496;-76
2021/12/17 09:46:06;;;;;;;27.02;9.68;;;;;;;10.25;100.00;103683.50;5035432;28;20087;-73
2021/12/17 09:48:35;;;;;;;22.88;9.82;;;;;;;10.28;100.00;103683.69;5032822;28;20522;-73
2021/12/17 09:51:04;;;;;;;23.50;9.73;;;;;;;10.30;100.00;103675.06;5021604;28;20572;-74
2021/12/17 09:53:33;;;;;;;24.27;9.88;;;;;;;10.32;100.00;103670.00;5024701;28;20054;-72
2021/12/17 09:56:00;;;;;;;24.02;9.88;;;;;;;10.34;100.00;103667.72;5037411;28;20144;-73
2021/12/17 09:58:27;;;;;;;23.80;9.85;;;;;;;10.35;100.00;103669.34;5030899;28;20773;-73
2021/12/17 10:00:54;;;;;;;24.88;9.23;;;;;;;10.37;100.00;103667.88;5024264;28;20089;-74
2021/12/17 10:03:20;;;;;;;22.80;9.55;;;;;;;10.40;100.00;103667.22;5024054;28;20422;-74
2021/12/17 10:05:47;;;;;;;25.08;9.98;;;;;;;10.44;100.00;103668.19;5027735;28;20075;-72
2021/12/17 10:08:20;;;;;;;21.27;8.68;;;;;;;10.47;100.00;103673.09;5019452;28;20137;-74
2021/12/17 10:10:48;;;;;;;22.08;8.38;;;;;;;10.53;100.00;103677.34;5025189;28;20461;-73
2021/12/17 10:13:29;;;;;;;23.15;8.02;;;;;;;10.56;100.00;103678.63;5029695;28;20055;-74
2021/12/17 10:16:00;;;;;;;21.85;8.55;;;;;;;10.59;100.00;103679.97;5027661;28;20049;-72
2021/12/17 10:18:46;;;;;;;24.13;9.05;;;;;;;10.60;100.00;103681.56;5017318;28;20132;-73
2021/12/17 10:21:23;;;;;;;21.67;7.85;;;;;;;10.61;100.00;103680.44;5014942;28;20156;-74
2021/12/17 10:23:52;;;;;;;21.38;8.38;;;;;;;10.65;100.00;103685.00;5026057;28;20132;-73
2021/12/17 10:26:20;;;;;;;19.08;7.82;;;;;;;10.67;100.00;103681.91;5019416;28;20077;-73
2021/12/17 10:28:55;;;;;;;20.60;8.18;;;;;;;10.65;100.00;103673.09;5039560;28;20144;-73
2021/12/17 10:31:24;;;;;;;20.48;7.75;;;;;;;10.65;100.00;103678.63;5027265;28;20124;-73
2021/12/17 10:33:54;;;;;;;20.67;8.23;;;;;;;10.61;100.00;103672.94;5026768;28;20049;-75
2021/12/17 10:36:35;;;;;;;19.17;7.60;;;;;;;10.64;100.00;103688.91;5024442;28;20076;-73
2021/12/17 10:39:25;;;;;;;17.50;6.88;;;;;;;10.66;100.00;103691.34;5018967;28;20100;-73
2021/12/17 10:41:52;;;;;;;16.30;6.85;;;;;;;10.68;100.00;103683.50;5027090;28;20099;-74
2021/12/17 10:44:22;;;;;;;18.27;6.80;;;;;;;10.67;100.00;103681.91;5027881;28;20053;-72
2021/12/17 10:47:06;;;;;;;16.85;6.95;;;;;;;10.67;100.00;103677.19;5014081;28;20050;-73
2021/12/17 10:49:33;;;;;;;17.10;6.20;;;;;;;10.70;100.00;103686.78;5021969;28;20045;-73
2021/12/17 10:52:15;;;;;;;17.48;6.55;;;;;;;10.69;100.00;103690.72;5022362;28;20160;-74
2021/12/17 10:54:41;;;;;;;18.40;6.80;;;;;;;10.67;100.00;103698.50;5020728;28;20141;-73
2021/12/17 10:57:08;;;;;;;17.05;6.50;;;;;;;10.67;100.00;103687.44;5025198;28;20148;-74
2021/12/17 10:59:36;;;;;;;17.92;6.63;;;;;;;10.72;100.00;103692.78;5022261;28;20065;-70
2021/12/17 11:02:10;;;;;;;13.73;5.07;;;;;;;10.73;100.00;103686.94;5026517;28;20088;-74
2021/12/17 11:04:40;;;;;;;15.85;5.65;;;;;;;10.77;100.00;103692.66;5022361;28;20156;-74
2021/12/17 11:07:10;;;;;;;16.13;5.90;;;;;;;10.71;100.00;103677.31;5029834;28;20077;-74
2021/12/17 11:09:43;;;;;;;13.35;5.38;;;;;;;10.75;100.00;103678.28;5031069;28;20133;-73
2021/12/17 11:12:34;;;;;;;11.80;4.32;;;;;;;10.73;100.00;103680.59;5026294;28;20045;-73
2021/12/17 11:15:19;;;;;;;18.55;4.93;;;;;;;10.74;100.00;103683.03;5025998;28;20080;-74
2021/12/17 11:17:51;;;;;;;14.85;4.72;;;;;;;10.74;100.00;103688.59;5024401;28;20053;-75
2021/12/17 11:20:26;;;;;;;13.95;4.63;;;;;;;10.75;100.00;103678.28;5017984;28;20041;-73
2021/12/17 11:22:55;;;;;;;12.05;4.93;;;;;;;10.77;100.00;103678.78;5020364;28;20512;-73
2021/12/17 11:25:24;;;;;;;10.95;3.78;;;;;;;10.74;100.00;103673.91;5016035;28;20112;-75
2021/12/17 11:27:52;;;;;;;11.00;4.55;;;;;;;10.71;100.00;103680.09;5019210;28;20540;-74
2021/12/17 11:30:22;;;;;;;18.00;8.63;;;;;;;10.68;100.00;103684.34;5022226;28;20107;-73
2021/12/17 11:32:49;;;;;;;26.90;11.43;;;;;;;10.68;100.00;103687.09;5026430;28;20585;-73
2021/12/17 11:35:24;;;;;;;22.77;10.18;;;;;;;10.69;100.00;103683.19;5019355;28;20060;-73
2021/12/17 11:37:54;;;;;;;27.85;11.73;;;;;;;10.67;100.00;103679.94;5025809;28;20593;-70
2021/12/17 11:41:04;;;;;;;20.25;7.80;;;;;;;10.70;100.00;103676.50;5021462;28;20091;-72
2021/12/17 11:43:52;;;;;;;13.43;5.25;;;;;;;10.73;100.00;103678.63;5020117;28;21259;-73
2021/12/17 11:46:25;;;;;;;14.65;5.45;;;;;;;10.79;100.00;103679.25;5029025;28;20115;-73
2021/12/17 11:48:59;;;;;;;32.55;12.80;;;;;;;10.82;100.00;103684.16;5025643;28;20468;-73
2021/12/17 11:51:32;;;;;;;17.13;6.30;;;;;;;10.83;100.00;103672.75;5029714;28;20045;-74
2021/12/17 11:54:26;;;;;;;30.67;12.05;;;;;;;10.84;100.00;103668.84;5026005;28;20049;-73
2021/12/17 11:56:55;;;;;;;14.98;6.18;;;;;;;10.84;100.00;103666.09;5022734;28;20049;-74
2021/12/17 11:59:24;;;;;;;21.10;9.50;;;;;;;10.90;100.00;103672.25;5024361;28;20073;-74
2021/12/17 12:02:15;;;;;;;15.10;5.55;;;;;;;10.94;100.00;103670.47;5026117;28;20042;-73
2021/12/17 12:05:03;;;;;;;13.18;5.22;;;;;;;10.94;100.00;103667.69;5025886;28;20208;-73
2021/12/17 12:07:33;;;;;;;11.63;4.57;;;;;;;10.98;100.00;103665.88;5027254;28;20168;-73
2021/12/17 12:10:12;;;;;;;21.35;8.63;;;;;;;10.95;100.00;103672.06;5028054;28;20760;-74
2021/12/17 12:12:43;;;;;;;18.38;8.38;;;;;;;10.96;100.00;103670.91;5020741;28;20057;-74
2021/12/17 12:15:30;;;;;;;21.27;8.90;;;;;;;10.87;100.00;103659.06;5028625;28;20077;-75
2021/12/17 12:17:57;;;;;;;19.27;8.55;;;;;;;10.89;100.00;103668.66;5018535;28;20067;-75
2021/12/17 12:20:37;;;;;;;13.75;5.35;;;;;;;10.83;100.00;103669.97;5014818;28;20050;-74
2021/12/17 12:23:23;;;;;;;21.23;9.05;;;;;;;10.76;100.00;103664.13;5007629;28;20061;-73
2021/12/17 12:26:02;;;;;;;20.63;8.02;;;;;;;10.73;100.00;103667.53;5017841;28;20072;-74
2021/12/17 12:29:03;;;;;;;21.50;8.38;;;;;;;10.66;100.00;103663.66;5020734;28;20041;-74
2021/12/17 12:31:36;;;;;;;25.30;9.90;;;;;;;10.67;100.00;103666.09;5022964;28;20075;-74
2021/12/17 12:34:11;;;;;;;26.77;11.30;;;;;;;10.61;100.00;103667.41;5030660;28;20099;-74
2021/12/17 12:37:09;;;;;;;20.02;7.63;;;;;;;10.60;100.00;103674.09;5029976;28;20781;-73
2021/12/17 12:39:50;;;;;;;28.65;12.48;;;;;;;10.60;100.00;103664.97;5029670;28;20056;-74
2021/12/17 12:42:23;;;;;;;22.92;9.85;;;;;;;10.60;100.00;103660.25;5017720;28;20379;-71
2021/12/17 12:44:49;;;;;;;25.48;11.25;;;;;;;10.60;100.00;103662.19;5026015;28;20050;-71
2021/12/17 12:47:26;;;;;;;22.70;9.02;;;;;;;10.60;100.00;103663.03;5026620;28;20140;-74
2021/12/17 12:50:06;;;;;;;20.65;9.07;;;;;;;10.63;100.00;103669.84;5028333;28;20441;-72
2021/12/17 12:52:40;;;;;;;18.13;7.40;;;;;;;10.65;100.00;103675.84;5032020;28;20472;-71
2021/12/17 12:55:06;;;;;;;25.05;11.60;;;;;;;10.66;100.00;103672.75;5034397;28;20148;-72
2021/12/17 12:57:41;;;;;;;16.23;7.38;;;;;;;10.69;100.00;103672.13;5026648;28;20050;-74
2021/12/17 13:00:16;;;;;;;19.77;7.30;;;;;;;10.71;100.00;103663.47;5024244;28;20073;-71
2021/12/17 13:02:44;;;;;;;14.07;5.85;;;;;;;10.76;100.00;103655.00;5024423;28;20049;-74
2021/12/17 13:05:11;;;;;;;14.07;5.72;;;;;;;10.80;100.00;103665.09;5025900;28;20100;-73
2021/12/17 13:07:47;;;;;;;22.80;8.15;;;;;;;10.77;100.00;103660.22;5034692;28;20061;-72
2021/12/17 13:10:18;;;;;;;;;;;;;;;10.80;100.00;103655.97;5029144;28;20570;-74
2021/12/17 13:12:55;;;;;;;15.07;6.38;;;;;;;10.86;100.00;103651.91;5025067;28;19952;-73
2021/12/17 13:23:51;;;;;;;15.23;5.35;;;;;;;10.92;100.00;103640.31;5027173;28;20175;-73
2021/12/17 13:26:21;;;;;;;13.82;5.00;;;;;;;10.96;100.00;103643.22;5020260;28;20053;-73
2021/12/17 13:28:59;;;;;;;13.88;4.93;;;;;;;10.94;100.00;103642.75;5024424;28;20065;-72
2021/12/17 13:31:33;;;;;;;12.45;6.40;;;;;;;10.93;100.00;103644.69;5026306;28;20061;-73
2021/12/17 13:33:59;;;;;;;11.25;5.03;;;;;;;10.93;100.00;103636.38;5027147;28;20051;-74
2021/12/17 13:36:26;;;;;;;18.98;5.85;;;;;;;10.90;100.00;103628.72;5016265;28;20054;-75
2021/12/17 13:38:57;;;;;;;19.58;4.72;;;;;;;10.88;100.00;103632.97;5027594;28;20136;-73
2021/12/17 13:41:42;;;;;;;11.68;5.00;;;;;;;10.87;100.00;103628.59;5022279;28;20506;-75
2021/12/17 13:44:30;;;;;;;25.70;6.28;;;;;;;10.87;100.00;103623.06;5023970;28;20111;-74
2021/12/17 13:47:19;;;;;;;11.38;4.63;;;;;;;10.91;100.00;103622.06;5029424;28;20474;-76
2021/12/17 13:49:56;;;;;;;22.38;6.05;;;;;;;10.91;100.00;103627.59;5028807;28;20136;-75
2021/12/17 13:52:27;;;;;;;11.15;4.82;;;;;;;10.90;100.00;103631.50;5027103;28;20132;-74
2021/12/17 13:54:55;;;;;;;17.50;5.43;;;;;;;10.89;100.00;103634.59;5023240;28;20056;-75
2021/12/17 13:57:27;;;;;;;12.18;4.13;;;;;;;10.87;100.00;103636.91;5027452;28;20063;-75
2021/12/17 14:00:15;;;;;;;14.00;4.68;;;;;;;10.83;100.00;103633.16;5026176;28;20041;-75
2021/12/17 14:02:44;;;;;;;12.38;4.80;;;;;;;10.82;100.00;103628.75;5026875;28;20060;-74
2021/12/17 14:05:45;;;;;;;12.18;5.22;;;;;;;10.74;100.00;103626.81;5025485;28;20652;-74
2021/12/17 14:08:16;;;;;;;20.05;5.85;;;;;;;10.72;100.00;103629.91;5017503;28;20057;-74
2021/12/17 14:10:43;;;;;;;13.02;4.93;;;;;;;10.70;100.00;103637.72;5025096;28;20092;-74
2021/12/17 14:13:26;;;;;;;12.55;5.88;;;;;;;10.65;100.00;103637.09;5034359;28;20067;-72
2021/12/17 14:16:02;;;;;;;15.45;5.22;;;;;;;10.66;100.00;103639.53;5037209;28;20063;-74
2021/12/17 14:18:29;;;;;;;9.85;4.28;;;;;;;10.62;100.00;103634.97;5028073;28;20537;-75
2021/12/17 14:21:01;;;;;;;8.48;4.13;;;;;;;10.54;99.13;103626.34;5031298;28;20053;-75
2021/12/17 14:23:29;;;;;;;14.43;5.85;;;;;;;10.53;99.20;103627.50;5028847;28;20692;-73
2021/12/17 14:25:57;;;;;;;12.50;5.32;;;;;;;10.50;100.00;103619.84;5026290;28;20136;-76
2021/12/17 14:28:25;;;;;;;13.32;5.20;;;;;;;10.54;100.00;103623.56;5024439;28;20053;-74